sensor_id;sensor_type;location;lat;lon;timestamp;P1;durP1;ratioP1;P2;durP2;ratioP2
15177;SDS011;7689;53.612;-2.416;2022-07-29T00:00:36;3.83;;;2.50;;
15177;SDS011;7689;53.612;-2.416;2022-07-29T00:03:02;5.10;;;2.70;;
15177;SDS011;7689;53.612;-2.416;2022-07-29T00:05:28;2.72;;;2.50;;
15177;SDS011;7689;53.612;-2.416;2022-07-29T00:07:53;5.70;;;2.70;;
15177;SDS011;7689;53.612;-2.416;2022-07-29T00:10:19;3.97;;;2.75;;
15177;SDS011;7689;53.612;-2.416;2022-07-29T00:12:45;4.20;;;3.10;;
15177;SDS011;7689;53.612;-2.416;2022-07-29T00:15:11;4.25;;;2.92;;
15177;SDS011;7689;53.612;-2.416;2022-07-29T00:17:37;3.65;;;2.70;;
15177;SDS011;7689;53.612;-2.416;2022-07-29T00:20:03;4.82;;;2.47;;
15177;SDS011;7689;53.612;-2.416;2022-07-29T00:22:29;5.88;;;2.60;;
15177;SDS011;7689;53.612;-2.416;2022-07-29T00:24:54;5.43;;;2.60;;
15177;SDS011;7689;53.612;-2.416;2022-07-29T00:27:20;2.90;;;2.70;;
15177;SDS011;7689;53.612;-2.416;2022-07-29T00:29:46;3.30;;;2.92;;
15177;SDS011;7689;53.612;-2.416;2022-07-29T00:32:12;5.20;;;3.13;;
15177;SDS011;7689;53.612;-2.416;2022-07-29T00:34:38;6.45;;;3.13;;
15177;SDS011;7689;53.612;-2.416;2022-07-29T00:37:22;5.03;;;2.70;;
15177;SDS011;7689;53.612;-2.416;2022-07-29T00:39:48;4.97;;;2.90;;
15177;SDS011;7689;53.612;-2.416;2022-07-29T00:42:14;5.20;;;3.40;;
15177;SDS011;7689;53.612;-2.416;2022-07-29T00:44:41;5.03;;;3.00;;
15177;SDS011;7689;53.612;-2.416;2022-07-29T00:47:08;5.20;;;2.88;;
15177;SDS011;7689;53.612;-2.416;2022-07-29T00:49:34;4.57;;;3.10;;
15177;SDS011;7689;53.612;-2.416;2022-07-29T00:52:01;7.90;;;2.95;;
15177;SDS011;7689;53.612;-2.416;2022-07-29T00:54:28;5.57;;;3.22;;
15177;SDS011;7689;53.612;-2.416;2022-07-29T00:56:54;3.20;;;2.50;;
15177;SDS011;7689;53.612;-2.416;2022-07-29T00:59:22;5.40;;;2.70;;
15177;SDS011;7689;53.612;-2.416;2022-07-29T01:01:48;8.93;;;3.35;;
15177;SDS011;7689;53.612;-2.416;2022-07-29T01:04:13;5.07;;;3.00;;
15177;SDS011;7689;53.612;-2.416;2022-07-29T01:06:39;6.30;;;2.53;;
15177;SDS011;7689;53.612;-2.416;2022-07-29T01:09:06;3.22;;;2.92;;
15177;SDS011;7689;53.612;-2.416;2022-07-29T01:11:32;2.97;;;2.78;;
15177;SDS011;7689;53.612;-2.416;2022-07-29T01:13:59;3.03;;;2.70;;
15177;SDS011;7689;53.612;-2.416;2022-07-29T01:16:29;4.93;;;2.90;;
15177;SDS011;7689;53.612;-2.416;2022-07-29T01:19:00;4.25;;;2.60;;
15177;SDS011;7689;53.612;-2.416;2022-07-29T01:21:51;4.20;;;2.63;;
15177;SDS011;7689;53.612;-2.416;2022-07-29T01:24:29;3.72;;;2.88;;
15177;SDS011;7689;53.612;-2.416;2022-07-29T01:29:38;3.20;;;2.75;;
15177;SDS011;7689;53.612;-2.416;2022-07-29T01:32:10;7.18;;;2.67;;
15177;SDS011;7689;53.612;-2.416;2022-07-29T01:34:45;4.72;;;2.60;;
15177;SDS011;7689;53.612;-2.416;2022-07-29T01:37:17;4.05;;;2.63;;
15177;SDS011;7689;53.612;-2.416;2022-07-29T01:39:49;5.75;;;2.65;;
15177;SDS011;7689;53.612;-2.416;2022-07-29T01:42:34;5.85;;;3.20;;
15177;SDS011;7689;53.612;-2.416;2022-07-29T01:50:28;7.00;;;3.00;;
15177;SDS011;7689;53.612;-2.416;2022-07-29T01:52:59;5.28;;;2.85;;
15177;SDS011;7689;53.612;-2.416;2022-07-29T01:55:29;4.63;;;3.20;;
15177;SDS011;7689;53.612;-2.416;2022-07-29T01:57:59;2.75;;;2.55;;
15177;SDS011;7689;53.612;-2.416;2022-07-29T02:00:28;4.35;;;3.33;;
15177;SDS011;7689;53.612;-2.416;2022-07-29T02:02:56;3.38;;;2.53;;
15177;SDS011;7689;53.612;-2.416;2022-07-29T02:05:26;8.52;;;2.60;;
15177;SDS011;7689;53.612;-2.416;2022-07-29T02:07:53;3.42;;;2.35;;
15177;SDS011;7689;53.612;-2.416;2022-07-29T02:10:21;5.15;;;2.50;;
15177;SDS011;7689;53.612;-2.416;2022-07-29T02:12:48;2.53;;;2.20;;
15177;SDS011;7689;53.612;-2.416;2022-07-29T02:15:16;4.22;;;2.50;;
15177;SDS011;7689;53.612;-2.416;2022-07-29T02:17:48;4.07;;;2.42;;
15177;SDS011;7689;53.612;-2.416;2022-07-29T02:20:18;3.28;;;2.25;;
15177;SDS011;7689;53.612;-2.416;2022-07-29T02:22:44;2.83;;;2.20;;
15177;SDS011;7689;53.612;-2.416;2022-07-29T02:25:11;4.50;;;2.25;;
15177;SDS011;7689;53.612;-2.416;2022-07-29T02:27:38;3.75;;;2.47;;
15177;SDS011;7689;53.612;-2.416;2022-07-29T02:30:06;3.97;;;2.25;;
15177;SDS011;7689;53.612;-2.416;2022-07-29T02:32:34;7.55;;;2.00;;
15177;SDS011;7689;53.612;-2.416;2022-07-29T02:35:01;2.22;;;2.03;;
15177;SDS011;7689;53.612;-2.416;2022-07-29T02:37:27;2.75;;;2.30;;
15177;SDS011;7689;53.612;-2.416;2022-07-29T02:39:55;2.35;;;2.17;;
15177;SDS011;7689;53.612;-2.416;2022-07-29T02:42:23;3.03;;;1.95;;
15177;SDS011;7689;53.612;-2.416;2022-07-29T02:44:51;2.20;;;2.00;;
15177;SDS011;7689;53.612;-2.416;2022-07-29T02:47:24;2.95;;;2.00;;
15177;SDS011;7689;53.612;-2.416;2022-07-29T02:50:07;2.55;;;2.08;;
15177;SDS011;7689;53.612;-2.416;2022-07-29T02:52:39;2.53;;;1.88;;
15177;SDS011;7689;53.612;-2.416;2022-07-29T02:55:14;3.38;;;2.20;;
15177;SDS011;7689;53.612;-2.416;2022-07-29T02:57:47;3.78;;;2.10;;
15177;SDS011;7689;53.612;-2.416;2022-07-29T03:00:19;3.88;;;2.30;;
15177;SDS011;7689;53.612;-2.416;2022-07-29T03:02:49;5.60;;;2.20;;
15177;SDS011;7689;53.612;-2.416;2022-07-29T03:05:19;2.20;;;2.00;;
15177;SDS011;7689;53.612;-2.416;2022-07-29T03:07:48;4.05;;;1.90;;
15177;SDS011;7689;53.612;-2.416;2022-07-29T03:10:17;2.70;;;1.70;;
15177;SDS011;7689;53.612;-2.416;2022-07-29T03:12:44;1.95;;;1.85;;
15177;SDS011;7689;53.612;-2.416;2022-07-29T03:15:10;2.40;;;1.95;;
15177;SDS011;7689;53.612;-2.416;2022-07-29T03:17:37;2.22;;;2.03;;
15177;SDS011;7689;53.612;-2.416;2022-07-29T03:20:04;4.82;;;2.10;;
15177;SDS011;7689;53.612;-2.416;2022-07-29T03:22:36;5.15;;;2.20;;
15177;SDS011;7689;53.612;-2.416;2022-07-29T03:25:08;2.65;;;2.00;;
15177;SDS011;7689;53.612;-2.416;2022-07-29T03:27:35;2.45;;;1.92;;
15177;SDS011;7689;53.612;-2.416;2022-07-29T03:30:01;3.72;;;2.05;;
15177;SDS011;7689;53.612;-2.416;2022-07-29T03:32:27;3.67;;;2.25;;
15177;SDS011;7689;53.612;-2.416;2022-07-29T03:34:52;2.75;;;2.03;;
15177;SDS011;7689;53.612;-2.416;2022-07-29T03:37:18;2.55;;;1.98;;
15177;SDS011;7689;53.612;-2.416;2022-07-29T03:39:43;2.70;;;2.08;;
15177;SDS011;7689;53.612;-2.416;2022-07-29T03:42:11;2.38;;;2.17;;
15177;SDS011;7689;53.612;-2.416;2022-07-29T03:44:40;2.38;;;2.00;;
15177;SDS011;7689;53.612;-2.416;2022-07-29T03:47:08;4.65;;;2.03;;
15177;SDS011;7689;53.612;-2.416;2022-07-29T03:49:36;2.85;;;1.80;;
15177;SDS011;7689;53.612;-2.416;2022-07-29T03:52:03;2.40;;;2.20;;
15177;SDS011;7689;53.612;-2.416;2022-07-29T03:54:29;2.10;;;1.90;;
15177;SDS011;7689;53.612;-2.416;2022-07-29T03:56:55;2.13;;;1.92;;
15177;SDS011;7689;53.612;-2.416;2022-07-29T03:59:26;2.10;;;1.90;;
15177;SDS011;7689;53.612;-2.416;2022-07-29T04:01:52;2.53;;;2.35;;
15177;SDS011;7689;53.612;-2.416;2022-07-29T04:04:21;4.32;;;2.33;;
15177;SDS011;7689;53.612;-2.416;2022-07-29T04:06:46;2.92;;;2.10;;
15177;SDS011;7689;53.612;-2.416;2022-07-29T04:09:12;4.57;;;2.17;;
15177;SDS011;7689;53.612;-2.416;2022-07-29T04:11:39;2.80;;;1.95;;
15177;SDS011;7689;53.612;-2.416;2022-07-29T04:14:06;3.47;;;2.55;;
15177;SDS011;7689;53.612;-2.416;2022-07-29T04:16:31;5.28;;;2.33;;
15177;SDS011;7689;53.612;-2.416;2022-07-29T04:18:57;2.53;;;2.33;;
15177;SDS011;7689;53.612;-2.416;2022-07-29T04:21:23;3.63;;;2.47;;
15177;SDS011;7689;53.612;-2.416;2022-07-29T04:23:49;2.47;;;2.28;;
15177;SDS011;7689;53.612;-2.416;2022-07-29T04:26:15;3.10;;;2.80;;
15177;SDS011;7689;53.612;-2.416;2022-07-29T04:28:42;2.75;;;2.15;;
15177;SDS011;7689;53.612;-2.416;2022-07-29T04:31:08;4.68;;;2.47;;
15177;SDS011;7689;53.612;-2.416;2022-07-29T04:33:34;2.60;;;2.20;;
15177;SDS011;7689;53.612;-2.416;2022-07-29T04:35:59;2.85;;;2.58;;
15177;SDS011;7689;53.612;-2.416;2022-07-29T04:38:25;2.55;;;2.35;;
15177;SDS011;7689;53.612;-2.416;2022-07-29T04:40:51;3.13;;;2.40;;
15177;SDS011;7689;53.612;-2.416;2022-07-29T04:43:16;4.82;;;2.85;;
15177;SDS011;7689;53.612;-2.416;2022-07-29T04:45:42;8.85;;;2.40;;
15177;SDS011;7689;53.612;-2.416;2022-07-29T04:48:08;2.53;;;2.30;;
15177;SDS011;7689;53.612;-2.416;2022-07-29T04:50:34;5.28;;;2.38;;
15177;SDS011;7689;53.612;-2.416;2022-07-29T04:53:02;2.95;;;2.50;;
15177;SDS011;7689;53.612;-2.416;2022-07-29T04:55:28;4.50;;;2.45;;
15177;SDS011;7689;53.612;-2.416;2022-07-29T04:57:53;3.67;;;2.70;;
15177;SDS011;7689;53.612;-2.416;2022-07-29T05:00:19;2.58;;;2.45;;
15177;SDS011;7689;53.612;-2.416;2022-07-29T05:02:45;2.70;;;2.40;;
15177;SDS011;7689;53.612;-2.416;2022-07-29T05:05:10;5.53;;;2.35;;
15177;SDS011;7689;53.612;-2.416;2022-07-29T05:07:36;2.47;;;2.30;;
15177;SDS011;7689;53.612;-2.416;2022-07-29T05:10:02;6.57;;;2.72;;
15177;SDS011;7689;53.612;-2.416;2022-07-29T05:12:28;7.10;;;2.47;;
15177;SDS011;7689;53.612;-2.416;2022-07-29T05:14:54;4.32;;;2.63;;
15177;SDS011;7689;53.612;-2.416;2022-07-29T05:17:20;5.63;;;2.40;;
15177;SDS011;7689;53.612;-2.416;2022-07-29T05:19:45;7.10;;;2.88;;
15177;SDS011;7689;53.612;-2.416;2022-07-29T05:22:11;5.15;;;2.90;;
15177;SDS011;7689;53.612;-2.416;2022-07-29T05:24:36;3.17;;;2.33;;
15177;SDS011;7689;53.612;-2.416;2022-07-29T05:27:02;4.03;;;2.45;;
15177;SDS011;7689;53.612;-2.416;2022-07-29T05:29:28;5.70;;;2.40;;
15177;SDS011;7689;53.612;-2.416;2022-07-29T05:31:53;2.65;;;2.20;;
15177;SDS011;7689;53.612;-2.416;2022-07-29T05:34:19;3.15;;;2.42;;
15177;SDS011;7689;53.612;-2.416;2022-07-29T05:36:45;3.95;;;2.60;;
15177;SDS011;7689;53.612;-2.416;2022-07-29T05:39:11;2.97;;;2.30;;
15177;SDS011;7689;53.612;-2.416;2022-07-29T05:41:37;4.00;;;2.22;;
15177;SDS011;7689;53.612;-2.416;2022-07-29T05:44:03;2.58;;;2.40;;
15177;SDS011;7689;53.612;-2.416;2022-07-29T05:46:29;6.43;;;2.88;;
15177;SDS011;7689;53.612;-2.416;2022-07-29T05:48:55;2.58;;;2.47;;
15177;SDS011;7689;53.612;-2.416;2022-07-29T05:51:21;3.50;;;2.58;;
15177;SDS011;7689;53.612;-2.416;2022-07-29T05:53:46;3.90;;;2.22;;
15177;SDS011;7689;53.612;-2.416;2022-07-29T05:56:12;3.67;;;2.25;;
15177;SDS011;7689;53.612;-2.416;2022-07-29T05:58:38;4.32;;;3.33;;
15177;SDS011;7689;53.612;-2.416;2022-07-29T06:01:04;3.35;;;2.50;;
15177;SDS011;7689;53.612;-2.416;2022-07-29T06:03:29;4.07;;;2.50;;
15177;SDS011;7689;53.612;-2.416;2022-07-29T06:05:55;6.60;;;2.65;;
15177;SDS011;7689;53.612;-2.416;2022-07-29T06:08:21;2.92;;;2.60;;
15177;SDS011;7689;53.612;-2.416;2022-07-29T06:10:46;5.40;;;2.67;;
15177;SDS011;7689;53.612;-2.416;2022-07-29T06:13:12;2.92;;;2.40;;
15177;SDS011;7689;53.612;-2.416;2022-07-29T06:15:40;4.25;;;2.55;;
15177;SDS011;7689;53.612;-2.416;2022-07-29T06:18:07;2.97;;;2.53;;
15177;SDS011;7689;53.612;-2.416;2022-07-29T06:20:34;2.78;;;2.58;;
15177;SDS011;7689;53.612;-2.416;2022-07-29T06:23:00;2.50;;;2.30;;
15177;SDS011;7689;53.612;-2.416;2022-07-29T06:25:26;2.63;;;2.40;;
15177;SDS011;7689;53.612;-2.416;2022-07-29T06:27:54;5.75;;;2.88;;
15177;SDS011;7689;53.612;-2.416;2022-07-29T06:30:19;7.15;;;3.10;;
15177;SDS011;7689;53.612;-2.416;2022-07-29T06:32:45;3.05;;;2.65;;
15177;SDS011;7689;53.612;-2.416;2022-07-29T06:35:11;2.85;;;2.65;;
15177;SDS011;7689;53.612;-2.416;2022-07-29T06:37:37;5.70;;;2.75;;
15177;SDS011;7689;53.612;-2.416;2022-07-29T06:40:03;2.88;;;2.10;;
15177;SDS011;7689;53.612;-2.416;2022-07-29T06:42:47;2.67;;;2.47;;
15177;SDS011;7689;53.612;-2.416;2022-07-29T06:45:13;7.00;;;2.88;;
15177;SDS011;7689;53.612;-2.416;2022-07-29T06:47:39;6.70;;;2.75;;
15177;SDS011;7689;53.612;-2.416;2022-07-29T06:50:05;3.08;;;2.60;;
15177;SDS011;7689;53.612;-2.416;2022-07-29T06:52:31;4.80;;;2.83;;
15177;SDS011;7689;53.612;-2.416;2022-07-29T06:54:56;2.92;;;2.67;;
15177;SDS011;7689;53.612;-2.416;2022-07-29T06:57:22;7.53;;;3.15;;
15177;SDS011;7689;53.612;-2.416;2022-07-29T06:59:48;3.78;;;2.85;;
15177;SDS011;7689;53.612;-2.416;2022-07-29T07:02:13;3.78;;;2.85;;
15177;SDS011;7689;53.612;-2.416;2022-07-29T07:04:39;5.57;;;3.20;;
15177;SDS011;7689;53.612;-2.416;2022-07-29T07:07:05;3.63;;;3.33;;
15177;SDS011;7689;53.612;-2.416;2022-07-29T07:09:30;4.88;;;3.17;;
15177;SDS011;7689;53.612;-2.416;2022-07-29T07:11:56;4.82;;;3.00;;
15177;SDS011;7689;53.612;-2.416;2022-07-29T07:14:22;3.22;;;2.95;;
15177;SDS011;7689;53.612;-2.416;2022-07-29T07:16:47;5.20;;;3.40;;
15177;SDS011;7689;53.612;-2.416;2022-07-29T07:19:13;3.53;;;3.22;;
15177;SDS011;7689;53.612;-2.416;2022-07-29T07:21:38;3.20;;;2.80;;
15177;SDS011;7689;53.612;-2.416;2022-07-29T07:24:04;3.20;;;2.90;;
15177;SDS011;7689;53.612;-2.416;2022-07-29T07:26:30;4.30;;;3.00;;
15177;SDS011;7689;53.612;-2.416;2022-07-29T07:28:56;3.60;;;2.80;;
15177;SDS011;7689;53.612;-2.416;2022-07-29T07:31:22;3.20;;;2.80;;
15177;SDS011;7689;53.612;-2.416;2022-07-29T07:33:47;6.25;;;2.47;;
15177;SDS011;7689;53.612;-2.416;2022-07-29T07:36:13;2.92;;;2.72;;
15177;SDS011;7689;53.612;-2.416;2022-07-29T07:38:39;2.80;;;2.70;;
15177;SDS011;7689;53.612;-2.416;2022-07-29T07:41:04;5.55;;;2.75;;
15177;SDS011;7689;53.612;-2.416;2022-07-29T07:43:30;4.18;;;2.60;;
15177;SDS011;7689;53.612;-2.416;2022-07-29T07:45:57;2.75;;;2.50;;
15177;SDS011;7689;53.612;-2.416;2022-07-29T07:48:23;4.35;;;3.28;;
15177;SDS011;7689;53.612;-2.416;2022-07-29T07:50:48;5.60;;;2.97;;
15177;SDS011;7689;53.612;-2.416;2022-07-29T07:53:15;2.70;;;2.58;;
15177;SDS011;7689;53.612;-2.416;2022-07-29T07:55:41;3.28;;;2.42;;
15177;SDS011;7689;53.612;-2.416;2022-07-29T07:58:08;3.55;;;3.15;;
15177;SDS011;7689;53.612;-2.416;2022-07-29T08:00:34;3.88;;;2.65;;
15177;SDS011;7689;53.612;-2.416;2022-07-29T08:02:59;2.78;;;2.58;;
15177;SDS011;7689;53.612;-2.416;2022-07-29T08:05:25;3.30;;;2.55;;
15177;SDS011;7689;53.612;-2.416;2022-07-29T08:07:51;5.13;;;3.03;;
15177;SDS011;7689;53.612;-2.416;2022-07-29T08:10:17;6.57;;;3.45;;
15177;SDS011;7689;53.612;-2.416;2022-07-29T08:13:04;2.75;;;2.50;;
15177;SDS011;7689;53.612;-2.416;2022-07-29T08:15:31;3.20;;;2.70;;
15177;SDS011;7689;53.612;-2.416;2022-07-29T08:17:57;5.45;;;3.30;;
15177;SDS011;7689;53.612;-2.416;2022-07-29T08:20:23;4.45;;;2.90;;
15177;SDS011;7689;53.612;-2.416;2022-07-29T08:22:48;4.45;;;2.90;;
15177;SDS011;7689;53.612;-2.416;2022-07-29T08:25:14;4.38;;;2.70;;
15177;SDS011;7689;53.612;-2.416;2022-07-29T08:27:40;5.97;;;2.70;;
15177;SDS011;7689;53.612;-2.416;2022-07-29T08:30:06;4.57;;;3.03;;
15177;SDS011;7689;53.612;-2.416;2022-07-29T08:32:32;2.80;;;2.60;;
15177;SDS011;7689;53.612;-2.416;2022-07-29T08:34:58;3.30;;;3.00;;
15177;SDS011;7689;53.612;-2.416;2022-07-29T08:37:23;3.40;;;3.10;;
15177;SDS011;7689;53.612;-2.416;2022-07-29T08:39:49;3.90;;;2.50;;
15177;SDS011;7689;53.612;-2.416;2022-07-29T08:42:15;3.35;;;2.60;;
15177;SDS011;7689;53.612;-2.416;2022-07-29T08:44:41;3.10;;;2.90;;
15177;SDS011;7689;53.612;-2.416;2022-07-29T08:47:07;4.40;;;2.90;;
15177;SDS011;7689;53.612;-2.416;2022-07-29T08:49:34;5.28;;;2.80;;
15177;SDS011;7689;53.612;-2.416;2022-07-29T08:52:01;4.25;;;2.50;;
15177;SDS011;7689;53.612;-2.416;2022-07-29T08:54:27;3.35;;;2.80;;
15177;SDS011;7689;53.612;-2.416;2022-07-29T08:56:54;2.55;;;2.35;;
15177;SDS011;7689;53.612;-2.416;2022-07-29T08:59:22;7.05;;;3.88;;
15177;SDS011;7689;53.612;-2.416;2022-07-29T09:01:50;4.45;;;3.00;;
15177;SDS011;7689;53.612;-2.416;2022-07-29T09:04:17;3.25;;;2.97;;
15177;SDS011;7689;53.612;-2.416;2022-07-29T09:06:46;3.22;;;2.58;;
15177;SDS011;7689;53.612;-2.416;2022-07-29T09:09:14;4.38;;;3.30;;
15177;SDS011;7689;53.612;-2.416;2022-07-29T09:11:40;4.18;;;2.95;;
15177;SDS011;7689;53.612;-2.416;2022-07-29T09:14:06;5.32;;;2.70;;
15177;SDS011;7689;53.612;-2.416;2022-07-29T09:16:52;4.68;;;3.08;;
15177;SDS011;7689;53.612;-2.416;2022-07-29T09:19:21;4.95;;;2.88;;
15177;SDS011;7689;53.612;-2.416;2022-07-29T09:21:47;4.40;;;2.75;;
15177;SDS011;7689;53.612;-2.416;2022-07-29T09:24:25;6.82;;;3.58;;
15177;SDS011;7689;53.612;-2.416;2022-07-29T09:27:02;3.97;;;3.30;;
15177;SDS011;7689;53.612;-2.416;2022-07-29T09:29:28;5.25;;;3.25;;
15177;SDS011;7689;53.612;-2.416;2022-07-29T09:31:54;4.68;;;4.05;;
15177;SDS011;7689;53.612;-2.416;2022-07-29T09:34:21;3.65;;;2.97;;
15177;SDS011;7689;53.612;-2.416;2022-07-29T09:36:56;3.17;;;2.60;;
15177;SDS011;7689;53.612;-2.416;2022-07-29T09:39:38;2.83;;;2.60;;
15177;SDS011;7689;53.612;-2.416;2022-07-29T09:42:11;3.45;;;2.90;;
15177;SDS011;7689;53.612;-2.416;2022-07-29T09:44:56;5.03;;;3.30;;
15177;SDS011;7689;53.612;-2.416;2022-07-29T09:47:22;5.00;;;2.97;;
15177;SDS011;7689;53.612;-2.416;2022-07-29T09:50:04;4.47;;;2.70;;
15177;SDS011;7689;53.612;-2.416;2022-07-29T09:52:30;3.55;;;3.25;;
15177;SDS011;7689;53.612;-2.416;2022-07-29T09:55:06;5.28;;;3.45;;
15177;SDS011;7689;53.612;-2.416;2022-07-29T09:57:33;11.95;;;4.95;;
15177;SDS011;7689;53.612;-2.416;2022-07-29T10:00:06;7.00;;;3.75;;
15177;SDS011;7689;53.612;-2.416;2022-07-29T10:02:36;4.47;;;2.95;;
15177;SDS011;7689;53.612;-2.416;2022-07-29T10:05:05;5.72;;;3.20;;
15177;SDS011;7689;53.612;-2.416;2022-07-29T10:10:28;6.43;;;3.65;;
15177;SDS011;7689;53.612;-2.416;2022-07-29T10:13:00;4.65;;;2.83;;
15177;SDS011;7689;53.612;-2.416;2022-07-29T10:15:29;4.63;;;2.78;;
15177;SDS011;7689;53.612;-2.416;2022-07-29T10:17:57;3.17;;;2.88;;
15177;SDS011;7689;53.612;-2.416;2022-07-29T10:20:24;5.93;;;3.42;;
15177;SDS011;7689;53.612;-2.416;2022-07-29T10:22:51;7.15;;;3.08;;
15177;SDS011;7689;53.612;-2.416;2022-07-29T10:25:18;3.75;;;3.15;;
15177;SDS011;7689;53.612;-2.416;2022-07-29T10:27:44;6.18;;;3.17;;
15177;SDS011;7689;53.612;-2.416;2022-07-29T10:30:12;5.15;;;3.38;;
15177;SDS011;7689;53.612;-2.416;2022-07-29T10:32:43;6.30;;;3.58;;
15177;SDS011;7689;53.612;-2.416;2022-07-29T10:43:43;7.97;;;3.95;;
15177;SDS011;7689;53.612;-2.416;2022-07-29T10:46:11;6.32;;;3.40;;
15177;SDS011;7689;53.612;-2.416;2022-07-29T10:54:38;3.20;;;2.90;;
15177;SDS011;7689;53.612;-2.416;2022-07-29T10:59:46;3.65;;;3.35;;
15177;SDS011;7689;53.612;-2.416;2022-07-29T11:07:22;5.00;;;3.45;;
15177;SDS011;7689;53.612;-2.416;2022-07-29T11:15:02;5.85;;;3.97;;
15177;SDS011;7689;53.612;-2.416;2022-07-29T11:17:37;5.28;;;3.42;;
15177;SDS011;7689;53.612;-2.416;2022-07-29T11:31:48;8.00;;;5.30;;
15177;SDS011;7689;53.612;-2.416;2022-07-29T11:39:32;7.95;;;3.78;;
15177;SDS011;7689;53.612;-2.416;2022-07-29T11:45:08;7.43;;;3.47;;
15177;SDS011;7689;53.612;-2.416;2022-07-29T11:47:48;6.88;;;3.22;;
15177;SDS011;7689;53.612;-2.416;2022-07-29T11:50:37;3.80;;;3.03;;
15177;SDS011;7689;53.612;-2.416;2022-07-29T11:53:03;5.25;;;3.22;;
15177;SDS011;7689;53.612;-2.416;2022-07-29T11:55:36;5.75;;;4.10;;
15177;SDS011;7689;53.612;-2.416;2022-07-29T11:58:06;4.10;;;3.70;;
15177;SDS011;7689;53.612;-2.416;2022-07-29T12:03:07;7.05;;;3.83;;
15177;SDS011;7689;53.612;-2.416;2022-07-29T12:05:39;6.30;;;3.72;;
15177;SDS011;7689;53.612;-2.416;2022-07-29T12:08:17;4.60;;;3.78;;
15177;SDS011;7689;53.612;-2.416;2022-07-29T12:10:44;5.93;;;4.05;;
15177;SDS011;7689;53.612;-2.416;2022-07-29T12:13:12;4.93;;;3.70;;
15177;SDS011;7689;53.612;-2.416;2022-07-29T12:15:39;3.80;;;3.13;;
15177;SDS011;7689;53.612;-2.416;2022-07-29T12:18:09;6.05;;;3.40;;
15177;SDS011;7689;53.612;-2.416;2022-07-29T12:20:39;4.25;;;2.95;;
15177;SDS011;7689;53.612;-2.416;2022-07-29T12:23:06;4.15;;;2.80;;
15177;SDS011;7689;53.612;-2.416;2022-07-29T12:25:34;7.55;;;3.45;;
15177;SDS011;7689;53.612;-2.416;2022-07-29T12:28:05;6.35;;;3.80;;
15177;SDS011;7689;53.612;-2.416;2022-07-29T12:30:36;4.72;;;3.95;;
15177;SDS011;7689;53.612;-2.416;2022-07-29T12:33:26;7.25;;;3.83;;
15177;SDS011;7689;53.612;-2.416;2022-07-29T12:35:54;3.67;;;3.42;;
15177;SDS011;7689;53.612;-2.416;2022-07-29T12:38:21;6.43;;;4.32;;
15177;SDS011;7689;53.612;-2.416;2022-07-29T12:40:48;8.45;;;4.63;;
15177;SDS011;7689;53.612;-2.416;2022-07-29T12:43:16;4.47;;;3.30;;
15177;SDS011;7689;53.612;-2.416;2022-07-29T12:45:45;6.85;;;3.97;;
15177;SDS011;7689;53.612;-2.416;2022-07-29T12:48:12;5.22;;;3.92;;
15177;SDS011;7689;53.612;-2.416;2022-07-29T12:50:57;7.25;;;4.15;;
15177;SDS011;7689;53.612;-2.416;2022-07-29T12:53:25;6.65;;;4.60;;
15177;SDS011;7689;53.612;-2.416;2022-07-29T12:55:51;5.15;;;4.63;;
15177;SDS011;7689;53.612;-2.416;2022-07-29T12:58:26;6.72;;;4.60;;
15177;SDS011;7689;53.612;-2.416;2022-07-29T13:03:56;5.60;;;4.45;;
15177;SDS011;7689;53.612;-2.416;2022-07-29T13:09:09;6.25;;;3.83;;
15177;SDS011;7689;53.612;-2.416;2022-07-29T13:11:37;9.23;;;5.43;;
15177;SDS011;7689;53.612;-2.416;2022-07-29T13:14:34;9.13;;;5.32;;
15177;SDS011;7689;53.612;-2.416;2022-07-29T13:17:06;8.30;;;5.63;;
15177;SDS011;7689;53.612;-2.416;2022-07-29T13:19:40;9.38;;;6.03;;
15177;SDS011;7689;53.612;-2.416;2022-07-29T13:22:17;7.85;;;5.93;;
15177;SDS011;7689;53.612;-2.416;2022-07-29T13:24:48;5.80;;;4.65;;
15177;SDS011;7689;53.612;-2.416;2022-07-29T13:27:22;6.90;;;5.45;;
15177;SDS011;7689;53.612;-2.416;2022-07-29T13:29:50;8.25;;;5.50;;
15177;SDS011;7689;53.612;-2.416;2022-07-29T13:32:17;6.25;;;5.65;;
15177;SDS011;7689;53.612;-2.416;2022-07-29T13:34:45;8.48;;;5.43;;
15177;SDS011;7689;53.612;-2.416;2022-07-29T13:37:11;9.55;;;5.80;;
15177;SDS011;7689;53.612;-2.416;2022-07-29T13:39:37;7.07;;;5.55;;
15177;SDS011;7689;53.612;-2.416;2022-07-29T13:42:06;6.18;;;5.20;;
15177;SDS011;7689;53.612;-2.416;2022-07-29T13:44:33;4.82;;;4.40;;
15177;SDS011;7689;53.612;-2.416;2022-07-29T13:46:59;6.85;;;5.47;;
15177;SDS011;7689;53.612;-2.416;2022-07-29T13:49:25;5.18;;;4.65;;
15177;SDS011;7689;53.612;-2.416;2022-07-29T13:51:52;4.47;;;4.05;;
15177;SDS011;7689;53.612;-2.416;2022-07-29T13:54:18;9.68;;;5.68;;
15177;SDS011;7689;53.612;-2.416;2022-07-29T13:56:44;8.07;;;5.03;;
15177;SDS011;7689;53.612;-2.416;2022-07-29T13:59:10;8.00;;;5.43;;
15177;SDS011;7689;53.612;-2.416;2022-07-29T14:01:36;9.15;;;5.93;;
15177;SDS011;7689;53.612;-2.416;2022-07-29T14:04:02;5.93;;;5.32;;
15177;SDS011;7689;53.612;-2.416;2022-07-29T14:06:28;6.95;;;4.93;;
15177;SDS011;7689;53.612;-2.416;2022-07-29T14:08:53;5.40;;;4.90;;
15177;SDS011;7689;53.612;-2.416;2022-07-29T14:11:19;11.25;;;5.72;;
15177;SDS011;7689;53.612;-2.416;2022-07-29T14:13:45;8.25;;;5.20;;
15177;SDS011;7689;53.612;-2.416;2022-07-29T14:16:11;4.95;;;4.15;;
15177;SDS011;7689;53.612;-2.416;2022-07-29T14:18:37;6.15;;;4.60;;
15177;SDS011;7689;53.612;-2.416;2022-07-29T14:21:02;4.75;;;4.18;;
15177;SDS011;7689;53.612;-2.416;2022-07-29T14:23:28;7.95;;;5.07;;
15177;SDS011;7689;53.612;-2.416;2022-07-29T14:25:54;9.98;;;4.85;;
15177;SDS011;7689;53.612;-2.416;2022-07-29T14:28:19;6.13;;;4.95;;
15177;SDS011;7689;53.612;-2.416;2022-07-29T14:30:45;6.75;;;5.90;;
15177;SDS011;7689;53.612;-2.416;2022-07-29T14:33:11;8.65;;;5.35;;
15177;SDS011;7689;53.612;-2.416;2022-07-29T14:35:37;8.57;;;5.40;;
15177;SDS011;7689;53.612;-2.416;2022-07-29T14:38:03;5.55;;;4.38;;
15177;SDS011;7689;53.612;-2.416;2022-07-29T14:40:28;5.82;;;4.50;;
15177;SDS011;7689;53.612;-2.416;2022-07-29T14:42:54;7.72;;;5.40;;
15177;SDS011;7689;53.612;-2.416;2022-07-29T14:45:20;8.50;;;4.47;;
15177;SDS011;7689;53.612;-2.416;2022-07-29T14:47:46;4.40;;;4.00;;
15177;SDS011;7689;53.612;-2.416;2022-07-29T14:50:11;5.95;;;4.13;;
15177;SDS011;7689;53.612;-2.416;2022-07-29T14:52:38;5.78;;;4.00;;
15177;SDS011;7689;53.612;-2.416;2022-07-29T14:55:04;5.80;;;4.00;;
15177;SDS011;7689;53.612;-2.416;2022-07-29T14:57:30;6.80;;;4.10;;
15177;SDS011;7689;53.612;-2.416;2022-07-29T14:59:56;4.03;;;3.72;;
15177;SDS011;7689;53.612;-2.416;2022-07-29T15:02:21;5.57;;;3.72;;
15177;SDS011;7689;53.612;-2.416;2022-07-29T15:04:47;9.85;;;4.53;;
15177;SDS011;7689;53.612;-2.416;2022-07-29T15:07:14;5.88;;;5.25;;
15177;SDS011;7689;53.612;-2.416;2022-07-29T15:09:40;6.72;;;4.60;;
15177;SDS011;7689;53.612;-2.416;2022-07-29T15:12:06;9.05;;;4.13;;
15177;SDS011;7689;53.612;-2.416;2022-07-29T15:14:33;7.18;;;4.65;;
15177;SDS011;7689;53.612;-2.416;2022-07-29T15:16:58;7.65;;;4.82;;
15177;SDS011;7689;53.612;-2.416;2022-07-29T15:19:24;6.57;;;5.15;;
15177;SDS011;7689;53.612;-2.416;2022-07-29T15:21:50;5.68;;;4.00;;
15177;SDS011;7689;53.612;-2.416;2022-07-29T15:24:16;6.18;;;4.93;;
15177;SDS011;7689;53.612;-2.416;2022-07-29T15:26:42;5.85;;;5.03;;
15177;SDS011;7689;53.612;-2.416;2022-07-29T15:29:08;6.43;;;4.70;;
15177;SDS011;7689;53.612;-2.416;2022-07-29T15:31:33;5.07;;;4.78;;
15177;SDS011;7689;53.612;-2.416;2022-07-29T15:33:59;8.98;;;4.68;;
15177;SDS011;7689;53.612;-2.416;2022-07-29T15:36:25;5.50;;;5.00;;
15177;SDS011;7689;53.612;-2.416;2022-07-29T15:38:53;4.65;;;4.18;;
15177;SDS011;7689;53.612;-2.416;2022-07-29T15:41:20;6.65;;;4.47;;
15177;SDS011;7689;53.612;-2.416;2022-07-29T15:43:47;5.05;;;4.57;;
15177;SDS011;7689;53.612;-2.416;2022-07-29T15:46:13;5.38;;;4.72;;
15177;SDS011;7689;53.612;-2.416;2022-07-29T15:48:59;6.38;;;4.30;;
15177;SDS011;7689;53.612;-2.416;2022-07-29T15:51:25;7.90;;;5.38;;
15177;SDS011;7689;53.612;-2.416;2022-07-29T15:53:51;7.28;;;5.00;;
15177;SDS011;7689;53.612;-2.416;2022-07-29T15:56:17;6.93;;;5.93;;
15177;SDS011;7689;53.612;-2.416;2022-07-29T15:58:43;7.40;;;4.93;;